カシュガル の空港の天気 - METARとTAF

カシュガル空港 ( ZWSH / KHG ) - 中華人民共和国 新疆ウイグル自治区カシュガル市
飛行場実況気象(Metar)
観測時間03/29 05:00 CST (03/28 21:00 UTC)
風向・風速北東 4m/s
視程8000m
天気現象
全天の4割程度の雲 雲底高度 1220m
気温14℃
湿度36%
気圧1020hPa
METARZWSH 282100Z 04004MPS 020V090 8000 SCT040 14/M01 Q1020 NOSIG
過去の天気等 Google飛行場航空写真 Wunderground天気予報

過去48時間のMETAR

飛行場予報(TAF)
発表時間: 3/28 23:08 CST (3/28 15:08 UTC)
予報対象時間: 29日2時 CST ~ 30日2時 CST
風向・風速北西 4m/s
視程6,000m
全天の4割程度の雲 雲底高度 1,220m
29日12時 CST ~ 29日13時 CST に徐々に
風向・風速東 3m/s
29日22時 CST ~ 29日23時 CST に徐々に
風向・風速北西 4m/s
TAF ZWSH 281508Z 2818/2918 32004MPS 6000 SCT040 TX22/2909Z TN12/2901Z
BECMG 2904/2905 09003MPS
BECMG 2914/2915 32004MPS